Praia, Cape Verde
Current Conditions -  °F | °C
As of 8:00 PM on Tuesday 27 Jan 2015 (Local Time) from GVNP Reporting Station
Haze Haze  
Wind Chill: 21°   Ceiling: 10000
Heat Index: 21°   Visibility: 3mi
Dew Point: 18°   Wind: 13mph
Humidity: 83%   Direction: 30°NNE
Pressure: 30.06"   Gusts: NA
Location:  14.93°N, 23.54°W
Report Text: GVNP 272100Z 03011KT 5000 HZ FEW017 BKN100 21/18 Q1018 NOSIG
Loading
Personal Weather Stations






























Interactive Weather Map New forecast layout! Learn more

10-Day Weather Forecast

Advertisements
Track Severe Weather on mobile